Dixon, Kentucky
Current Conditions -  °F | °C
As of 8:15 AM on Wednesday 28 Jan 2015 (Local Time) from KEHR Reporting Station
Few Clouds Few Clouds  
Wind Chill: -5°   Ceiling: Unl
Heat Index: -1°   Visibility: 10mi
Dew Point: -6°   Wind: 8mph
Humidity: 69%   Direction: 110°ESE
Pressure: 30.34"   Gusts: NA
Location:  37.52°N, 87.69°W
Report Text: KEHR 281415Z AUTO 11007KT 10SM FEW020 M01/M06 A3034 RMK AO1
Loading
Personal Weather Stations






























Interactive Weather Map New forecast layout! Learn more

10-Day Weather Forecast

Advertisements
Track Severe Weather on mobile